createdAt,value
2017-10-11T00:00:06.209Z,0.00
2017-10-11T00:01:05.810Z,0.00
2017-10-11T00:02:06.311Z,0.00
2017-10-11T00:03:05.478Z,0.00
2017-10-11T00:04:05.682Z,0.00
2017-10-11T00:05:05.910Z,0.00
2017-10-11T00:06:05.436Z,0.00
2017-10-11T00:07:05.624Z,0.00
2017-10-11T00:08:06.113Z,0.00
2017-10-11T00:09:05.031Z,0.00
2017-10-11T00:10:06.348Z,0.00
2017-10-11T00:11:05.927Z,0.00
2017-10-11T00:12:05.422Z,0.00
2017-10-11T00:13:06.012Z,0.00
2017-10-11T00:14:05.954Z,0.00
2017-10-11T00:15:05.610Z,0.00
2017-10-11T00:16:06.135Z,0.00
2017-10-11T00:17:05.823Z,0.00
2017-10-11T00:18:05.333Z,0.00
2017-10-11T00:19:05.828Z,0.00
2017-10-11T00:20:06.336Z,0.00
2017-10-11T00:21:05.653Z,0.00
2017-10-11T00:22:05.282Z,0.00
2017-10-11T00:23:05.727Z,0.00
2017-10-11T00:24:06.502Z,0.00
2017-10-11T00:25:06.270Z,0.00
2017-10-11T00:26:05.807Z,0.00
2017-10-11T00:27:05.292Z,0.00
2017-10-11T00:28:05.843Z,0.00
2017-10-11T00:29:05.608Z,0.00
2017-10-11T00:30:06.442Z,0.00
2017-10-11T00:31:05.475Z,0.00
2017-10-11T00:32:05.491Z,0.00
2017-10-11T00:33:05.713Z,0.00
2017-10-11T00:34:05.906Z,0.00
2017-10-11T00:35:06.223Z,0.00
2017-10-11T00:36:05.744Z,0.00
2017-10-11T00:37:06.064Z,0.00
2017-10-11T00:38:05.632Z,0.00
2017-10-11T00:39:06.180Z,0.00
2017-10-11T00:40:05.788Z,0.00
2017-10-11T00:41:05.024Z,0.00
2017-10-11T00:42:05.165Z,0.00
2017-10-11T00:43:06.062Z,0.00
2017-10-11T00:44:05.628Z,0.00
2017-10-11T00:45:06.175Z,0.00
2017-10-11T00:46:05.822Z,0.00
2017-10-11T00:47:05.376Z,0.00
2017-10-11T00:48:05.906Z,0.00
2017-10-11T00:49:06.364Z,0.00
2017-10-11T00:50:06.330Z,0.00
2017-10-11T00:51:05.912Z,0.00
2017-10-11T00:52:05.516Z,0.00
2017-10-11T00:53:05.853Z,0.00
2017-10-11T00:54:04.976Z,0.00
2017-10-11T00:55:05.828Z,0.00
2017-10-11T00:56:05.055Z,0.00
2017-10-11T00:57:05.571Z,0.00
2017-10-11T00:58:05.968Z,0.00
2017-10-11T00:59:05.114Z,0.00
2017-10-11T01:00:05.642Z,0.00
2017-10-11T01:01:06.147Z,0.00
2017-10-11T01:02:05.635Z,0.00
2017-10-11T01:03:06.254Z,0.00
2017-10-11T01:04:05.806Z,0.00
2017-10-11T01:05:05.394Z,0.00
2017-10-11T01:06:05.004Z,0.00
2017-10-11T01:07:05.943Z,0.00
2017-10-11T01:08:05.543Z,0.00
2017-10-11T01:09:05.716Z,0.00
2017-10-11T01:10:05.926Z,0.00
2017-10-11T01:11:05.472Z,0.00
2017-10-11T01:12:05.960Z,0.00
2017-10-11T01:13:05.484Z,0.00
2017-10-11T01:14:05.691Z,0.00
2017-10-11T01:15:05.910Z,0.00
2017-10-11T01:16:04.976Z,0.00
2017-10-11T01:17:05.067Z,0.00
2017-10-11T01:18:05.595Z,0.00
2017-10-11T01:19:06.412Z,0.00
2017-10-11T01:20:05.953Z,0.00
2017-10-11T01:21:05.496Z,0.00
2017-10-11T01:22:06.050Z,0.00
2017-10-11T01:23:05.587Z,0.00
2017-10-11T01:24:06.049Z,0.00
2017-10-11T01:25:05.662Z,0.00
2017-10-11T01:26:06.657Z,0.00
2017-10-11T01:27:06.095Z,0.00
2017-10-11T01:28:05.750Z,0.00
2017-10-11T01:29:05.370Z,0.00
2017-10-11T01:30:05.697Z,0.00
2017-10-11T01:31:06.242Z,0.00
2017-10-11T01:32:05.724Z,0.00
2017-10-11T01:33:06.314Z,0.00
2017-10-11T01:34:05.617Z,0.00
2017-10-11T01:35:05.042Z,0.00
2017-10-11T01:36:05.586Z,0.00
2017-10-11T01:37:06.198Z,0.00
2017-10-11T01:38:05.827Z,0.00
2017-10-11T01:39:05.410Z,0.00
2017-10-11T01:40:05.555Z,0.00
2017-10-11T01:41:05.946Z,0.00
2017-10-11T01:42:05.422Z,0.00
2017-10-11T01:43:05.963Z,0.00
2017-10-11T01:44:05.628Z,0.00
2017-10-11T01:45:06.154Z,0.00
2017-10-11T01:46:05.498Z,0.00
2017-10-11T01:47:05.736Z,0.00
2017-10-11T01:48:06.015Z,0.00
2017-10-11T01:49:05.327Z,0.00
2017-10-11T01:50:05.917Z,0.00
2017-10-11T01:51:05.356Z,0.00
2017-10-11T01:52:05.899Z,0.00
2017-10-11T01:53:05.743Z,0.00
2017-10-11T01:54:06.038Z,0.00
2017-10-11T01:55:05.313Z,0.00
2017-10-11T01:56:05.950Z,0.00
2017-10-11T01:57:06.210Z,0.00
2017-10-11T01:58:06.116Z,0.00
2017-10-11T01:59:05.303Z,0.00
2017-10-11T02:00:05.445Z,0.00
2017-10-11T02:01:05.596Z,0.00
2017-10-11T02:02:06.202Z,0.00
2017-10-11T02:03:05.709Z,0.00
2017-10-11T02:04:05.863Z,0.00
2017-10-11T02:05:05.558Z,0.00
2017-10-11T02:06:06.002Z,0.00
2017-10-11T02:07:05.507Z,0.00
2017-10-11T02:08:06.379Z,0.00
2017-10-11T02:09:06.097Z,0.00
2017-10-11T02:10:05.810Z,0.00
2017-10-11T02:11:05.340Z,0.00
2017-10-11T02:12:05.649Z,0.00
2017-10-11T02:13:05.955Z,0.00
2017-10-11T02:14:05.516Z,0.00
2017-10-11T02:15:06.224Z,0.00
2017-10-11T02:16:05.776Z,0.00
2017-10-11T02:17:05.669Z,0.00
2017-10-11T02:18:05.601Z,0.00
2017-10-11T02:19:05.760Z,0.00
2017-10-11T02:20:05.584Z,0.00
2017-10-11T02:21:06.131Z,0.00
2017-10-11T02:22:05.260Z,0.00
2017-10-11T02:23:05.592Z,0.00
2017-10-11T02:24:05.715Z,0.00
2017-10-11T02:25:06.007Z,0.00
2017-10-11T02:26:05.533Z,0.00
2017-10-11T02:27:05.657Z,0.00
2017-10-11T02:28:06.630Z,0.00
2017-10-11T02:29:06.104Z,0.00
2017-10-11T02:30:05.243Z,0.00
2017-10-11T02:31:05.844Z,0.00
2017-10-11T02:32:05.523Z,0.00
2017-10-11T02:33:06.282Z,0.00
2017-10-11T02:34:06.252Z,0.00
2017-10-11T02:35:06.882Z,0.00
2017-10-11T02:36:06.921Z,0.00
2017-10-11T02:37:06.861Z,0.00
2017-10-11T02:38:06.642Z,0.00
2017-10-11T02:39:06.471Z,0.00
2017-10-11T02:40:05.907Z,0.00
2017-10-11T02:41:05.986Z,0.00
2017-10-11T02:42:06.675Z,0.00
2017-10-11T02:43:06.641Z,0.00
2017-10-11T02:44:07.238Z,0.00
2017-10-11T02:45:07.394Z,0.00
2017-10-11T02:46:06.606Z,0.00
2017-10-11T02:47:06.376Z,0.00
2017-10-11T02:48:06.236Z,0.00
2017-10-11T02:49:06.690Z,0.00
2017-10-11T02:50:06.890Z,0.00
2017-10-11T02:51:05.893Z,0.00
2017-10-11T02:52:06.764Z,0.00
2017-10-11T02:53:06.051Z,0.00
2017-10-11T02:54:05.822Z,0.00
2017-10-11T02:55:05.709Z,0.00
2017-10-11T02:56:05.953Z,0.00
2017-10-11T02:57:05.484Z,0.00
2017-10-11T02:58:06.045Z,0.00
2017-10-11T02:59:05.197Z,0.00
2017-10-11T03:00:05.636Z,0.00
2017-10-11T03:01:05.746Z,0.00
2017-10-11T03:02:05.583Z,0.00
2017-10-11T03:03:05.827Z,0.00
2017-10-11T03:04:05.376Z,0.00
2017-10-11T03:05:05.602Z,0.00
2017-10-11T03:06:06.335Z,0.00
2017-10-11T03:07:05.929Z,0.00
2017-10-11T03:08:05.419Z,0.00
2017-10-11T03:09:05.960Z,0.00
2017-10-11T03:10:05.478Z,0.00
2017-10-11T03:11:06.000Z,0.00
2017-10-11T03:12:06.416Z,0.00
2017-10-11T03:13:05.576Z,0.00
2017-10-11T03:14:06.078Z,0.00
2017-10-11T03:15:05.290Z,0.00
2017-10-11T03:16:05.414Z,0.00
2017-10-11T03:17:05.540Z,0.00
2017-10-11T03:18:05.612Z,0.00
2017-10-11T03:19:06.303Z,0.00
2017-10-11T03:20:05.388Z,0.00
2017-10-11T03:21:05.943Z,0.00
2017-10-11T03:22:05.573Z,0.00
2017-10-11T03:23:06.070Z,0.00
2017-10-11T03:24:05.651Z,0.00
2017-10-11T03:25:06.573Z,0.00
2017-10-11T03:26:05.614Z,0.00
2017-10-11T03:27:05.813Z,0.00
2017-10-11T03:28:05.942Z,0.00
2017-10-11T03:29:05.491Z,0.00
2017-10-11T03:30:06.175Z,0.00
2017-10-11T03:31:05.282Z,0.00
2017-10-11T03:32:06.086Z,0.00
2017-10-11T03:33:05.498Z,0.00
2017-10-11T03:34:05.870Z,0.00
2017-10-11T03:35:05.282Z,0.00
2017-10-11T03:36:06.181Z,0.00
2017-10-11T03:37:05.697Z,0.00
2017-10-11T03:38:06.253Z,0.00
2017-10-11T03:39:05.672Z,0.00
2017-10-11T03:40:06.274Z,0.00
2017-10-11T03:41:05.702Z,0.00
2017-10-11T03:42:05.988Z,0.00
2017-10-11T03:43:05.166Z,0.00
2017-10-11T03:44:05.858Z,0.00
2017-10-11T03:45:06.016Z,0.00
2017-10-11T03:46:05.517Z,0.00
2017-10-11T03:47:06.108Z,0.00
2017-10-11T03:48:05.586Z,0.00
2017-10-11T03:49:06.100Z,0.00
2017-10-11T03:50:05.597Z,0.00
2017-10-11T03:51:06.314Z,0.00
2017-10-11T03:52:05.756Z,0.00
2017-10-11T03:53:05.931Z,0.00
2017-10-11T03:54:05.331Z,0.00
2017-10-11T03:55:05.830Z,0.00
2017-10-11T03:56:05.521Z,0.00
2017-10-11T03:57:05.790Z,0.00
2017-10-11T03:58:06.345Z,0.00
2017-10-11T03:59:05.907Z,0.00
2017-10-11T04:00:05.531Z,0.00
2017-10-11T04:01:06.021Z,0.00
2017-10-11T04:02:05.155Z,0.00
2017-10-11T04:03:05.251Z,0.00
2017-10-11T04:04:05.810Z,0.00
2017-10-11T04:05:04.974Z,0.00
2017-10-11T04:06:05.474Z,0.00
2017-10-11T04:07:06.809Z,0.00
2017-10-11T04:08:05.351Z,0.00
2017-10-11T04:09:05.947Z,0.00
2017-10-11T04:10:05.289Z,0.00
2017-10-11T04:11:05.769Z,0.00
2017-10-11T04:12:05.022Z,0.00
2017-10-11T04:13:05.671Z,0.00
2017-10-11T04:14:05.426Z,0.00
2017-10-11T04:15:06.044Z,0.00
2017-10-11T04:16:05.564Z,0.00
2017-10-11T04:17:05.818Z,0.00
2017-10-11T04:18:05.611Z,0.00
2017-10-11T04:19:05.868Z,0.00
2017-10-11T04:20:05.181Z,0.00
2017-10-11T04:21:05.726Z,0.00
2017-10-11T04:22:06.741Z,0.00
2017-10-11T04:23:05.976Z,0.00
2017-10-11T04:24:05.143Z,0.00
2017-10-11T04:25:05.469Z,0.00
2017-10-11T04:26:05.707Z,0.00
2017-10-11T04:27:05.988Z,0.00
2017-10-11T04:28:05.607Z,0.00
2017-10-11T04:29:06.263Z,0.00
2017-10-11T04:30:06.050Z,0.00
2017-10-11T04:31:09.064Z,0.00
2017-10-11T04:32:18.678Z,0.00
2017-10-11T04:33:06.333Z,0.00
2017-10-11T04:34:06.217Z,0.00
2017-10-11T04:35:05.943Z,0.00
2017-10-11T04:36:05.522Z,0.00
2017-10-11T04:37:06.092Z,0.00
2017-10-11T04:38:05.699Z,0.00
2017-10-11T04:39:05.816Z,0.00
2017-10-11T04:40:04.965Z,0.00
2017-10-11T04:41:08.450Z,0.00
2017-10-11T04:42:05.709Z,0.00
2017-10-11T04:43:05.304Z,0.00
2017-10-11T04:44:05.935Z,0.00
2017-10-11T04:45:05.993Z,0.00
2017-10-11T04:46:05.521Z,0.00
2017-10-11T04:47:06.158Z,0.00
2017-10-11T04:48:05.502Z,0.00
2017-10-11T04:49:05.610Z,0.00
2017-10-11T04:50:06.112Z,0.00
2017-10-11T04:51:05.694Z,0.00
2017-10-11T04:52:06.136Z,0.00
2017-10-11T04:53:05.711Z,0.00
2017-10-11T04:54:06.556Z,0.00
2017-10-11T04:55:05.645Z,0.00
2017-10-11T04:56:05.793Z,0.00
2017-10-11T04:57:06.002Z,0.00
2017-10-11T04:58:05.565Z,0.00
2017-10-11T04:59:06.263Z,0.00
2017-10-11T05:00:05.512Z,0.00
2017-10-11T05:01:05.788Z,0.00
2017-10-11T05:02:04.915Z,0.00
2017-10-11T05:03:06.858Z,0.00
2017-10-11T05:04:05.720Z,0.00
2017-10-11T05:05:06.584Z,0.00
2017-10-11T05:06:05.104Z,0.00
2017-10-11T05:07:05.606Z,0.00
2017-10-11T05:08:06.257Z,0.00
2017-10-11T05:09:05.905Z,0.00
2017-10-11T05:10:06.104Z,0.00
2017-10-11T05:11:05.342Z,0.00
2017-10-11T05:12:05.589Z,1.00
2017-10-11T05:13:05.796Z,1.00
2017-10-11T05:14:05.209Z,1.00
2017-10-11T05:15:05.404Z,1.00
2017-10-11T05:16:06.689Z,2.00
2017-10-11T05:17:06.312Z,1.00
2017-10-11T05:18:06.033Z,2.00
2017-10-11T05:19:05.488Z,2.00
2017-10-11T05:20:05.677Z,3.00
2017-10-11T05:21:05.310Z,3.00
2017-10-11T05:22:05.918Z,3.00
2017-10-11T05:23:05.353Z,5.00
2017-10-11T05:24:05.901Z,6.00
2017-10-11T05:25:05.540Z,8.00
2017-10-11T05:26:06.084Z,10.00
2017-10-11T05:27:05.378Z,13.00
2017-10-11T05:28:05.379Z,13.00
2017-10-11T05:29:05.995Z,15.00
2017-10-11T05:30:05.182Z,18.00
2017-10-11T05:31:06.306Z,25.00
2017-10-11T05:32:05.926Z,33.00
2017-10-11T05:33:05.533Z,45.00
2017-10-11T05:34:06.104Z,55.00
2017-10-11T05:35:05.448Z,64.00
2017-10-11T05:36:06.393Z,72.00
2017-10-11T05:37:06.239Z,69.00
2017-10-11T05:38:05.808Z,64.00
2017-10-11T05:39:05.410Z,72.00
2017-10-11T05:40:05.732Z,79.00
2017-10-11T05:41:05.539Z,92.00
2017-10-11T05:42:06.091Z,107.00
2017-10-11T05:43:05.153Z,119.00
2017-10-11T05:44:06.408Z,140.00
2017-10-11T05:45:06.080Z,178.00
2017-10-11T05:46:06.337Z,181.00
2017-10-11T05:47:05.576Z,178.00
2017-10-11T05:48:05.979Z,192.00
2017-10-11T05:49:05.586Z,231.00
2017-10-11T05:50:06.134Z,267.00
2017-10-11T05:51:05.729Z,317.00
2017-10-11T05:52:06.799Z,375.00
2017-10-11T05:53:05.442Z,382.00
2017-10-11T05:54:05.593Z,370.00
2017-10-11T05:55:06.676Z,375.00
2017-10-11T05:56:05.883Z,409.00
2017-10-11T05:57:05.110Z,385.00
2017-10-11T05:58:05.821Z,359.00
2017-10-11T05:59:05.443Z,333.00
2017-10-11T06:00:05.860Z,301.00
2017-10-11T06:01:05.225Z,329.00
2017-10-11T06:02:05.785Z,447.00
2017-10-11T06:03:05.041Z,610.00
2017-10-11T06:04:05.214Z,666.00
2017-10-11T06:05:05.493Z,752.00
2017-10-11T06:06:05.816Z,862.00
2017-10-11T06:07:05.693Z,919.00
2017-10-11T06:08:06.247Z,939.00
2017-10-11T06:09:05.621Z,902.00
2017-10-11T06:10:06.290Z,1116.00
2017-10-11T06:11:05.993Z,1398.00
2017-10-11T06:12:05.610Z,1361.00
2017-10-11T06:13:05.432Z,1242.00
2017-10-11T06:14:06.841Z,1441.00
2017-10-11T06:15:06.452Z,1302.00
2017-10-11T06:16:05.837Z,1344.00
2017-10-11T06:17:05.194Z,1285.00
2017-10-11T06:18:05.854Z,1264.00
2017-10-11T06:19:05.168Z,1613.00
2017-10-11T06:20:06.233Z,1715.00
2017-10-11T06:21:05.953Z,1664.00
2017-10-11T06:22:05.656Z,1688.00
2017-10-11T06:23:06.028Z,1835.00
2017-10-11T06:24:06.214Z,1777.00
2017-10-11T06:25:05.911Z,2085.00
2017-10-11T06:26:05.662Z,1973.00
2017-10-11T06:27:05.989Z,1962.00
2017-10-11T06:28:06.141Z,1720.00
2017-10-11T06:29:05.549Z,1877.00
2017-10-11T06:30:06.163Z,1859.00
2017-10-11T06:31:05.842Z,1847.00
2017-10-11T06:32:06.841Z,1901.00
2017-10-11T06:33:05.516Z,1925.00
2017-10-11T06:34:05.915Z,1435.00
2017-10-11T06:35:05.758Z,1096.00
2017-10-11T06:36:05.160Z,886.00
2017-10-11T06:37:05.407Z,836.00
2017-10-11T06:38:05.584Z,755.00
2017-10-11T06:39:05.888Z,954.00
2017-10-11T06:40:07.375Z,1125.00
2017-10-11T06:41:05.679Z,1160.00
2017-10-11T06:42:06.499Z,1172.00
2017-10-11T06:43:06.050Z,1118.00
2017-10-11T06:44:06.213Z,1130.00
2017-10-11T06:45:05.840Z,1085.00
2017-10-11T06:46:05.562Z,1054.00
2017-10-11T06:47:05.889Z,1156.00
2017-10-11T06:48:06.049Z,1280.00
2017-10-11T06:49:05.747Z,1225.00
2017-10-11T06:50:05.481Z,1206.00
2017-10-11T06:51:05.953Z,1141.00
2017-10-11T06:52:05.611Z,1273.00
2017-10-11T06:53:06.082Z,1380.00
2017-10-11T06:54:05.811Z,1222.00
2017-10-11T06:55:05.274Z,1320.00
2017-10-11T06:56:05.937Z,1669.00
2017-10-11T06:57:05.702Z,2375.00
2017-10-11T06:58:06.434Z,2455.00
2017-10-11T06:59:05.894Z,2569.00
2017-10-11T07:00:05.729Z,2257.00
2017-10-11T07:01:06.398Z,2278.00
2017-10-11T07:02:05.798Z,2467.00
2017-10-11T07:03:06.365Z,2113.00
2017-10-11T07:04:06.103Z,2208.00
2017-10-11T07:05:05.896Z,2162.00
2017-10-11T07:06:05.641Z,1859.00
2017-10-11T07:07:05.972Z,1641.00
2017-10-11T07:08:05.680Z,1656.00
2017-10-11T07:09:06.327Z,1790.00
2017-10-11T07:10:05.784Z,1866.00
2017-10-11T07:11:06.212Z,2045.00
2017-10-11T07:12:05.607Z,2891.00
2017-10-11T07:13:06.329Z,3228.00
2017-10-11T07:14:06.058Z,3406.00
2017-10-11T07:15:05.580Z,3612.00
2017-10-11T07:16:06.323Z,3824.00
2017-10-11T07:17:05.678Z,3828.00
2017-10-11T07:18:07.103Z,3703.00
2017-10-11T07:19:05.781Z,3601.00
2017-10-11T07:20:06.669Z,3125.00
2017-10-11T07:21:05.933Z,2671.00
2017-10-11T07:22:05.341Z,2336.00
2017-10-11T07:23:05.682Z,2145.00
2017-10-11T07:24:06.256Z,2130.00
2017-10-11T07:25:07.620Z,2687.00
2017-10-11T07:26:05.924Z,3352.00
2017-10-11T07:27:05.660Z,2992.00
2017-10-11T07:28:06.007Z,2955.00
2017-10-11T07:29:05.817Z,4226.00
2017-10-11T07:30:05.733Z,5060.00
2017-10-11T07:31:05.963Z,5388.00
2017-10-11T07:32:05.741Z,3578.00
2017-10-11T07:33:05.809Z,2101.00
2017-10-11T07:34:05.720Z,2640.00
2017-10-11T07:35:05.915Z,3543.00
2017-10-11T07:36:05.900Z,4006.00
2017-10-11T07:37:05.584Z,3977.00
2017-10-11T07:38:06.349Z,3860.00
2017-10-11T07:39:05.499Z,3498.00
2017-10-11T07:40:06.229Z,4474.00
2017-10-11T07:41:06.060Z,4497.00
2017-10-11T07:42:05.914Z,4844.00
2017-10-11T07:43:06.033Z,3976.00
2017-10-11T07:44:05.723Z,3980.00
2017-10-11T07:45:05.667Z,4439.00
2017-10-11T07:46:05.577Z,4317.00
2017-10-11T07:47:06.347Z,4537.00
2017-10-11T07:48:05.819Z,4889.00
2017-10-11T07:49:06.195Z,5343.00
2017-10-11T07:50:05.859Z,4457.00
2017-10-11T07:51:05.735Z,6319.00
2017-10-11T07:52:06.086Z,6377.00
2017-10-11T07:53:05.509Z,6288.00
2017-10-11T07:54:05.882Z,6447.00
2017-10-11T07:55:05.888Z,4524.00
2017-10-11T07:56:05.742Z,4306.00
2017-10-11T07:57:06.520Z,3794.00
2017-10-11T07:58:06.182Z,3746.00
2017-10-11T07:59:06.161Z,4396.00
2017-10-11T08:00:06.042Z,4679.00
2017-10-11T08:01:05.365Z,4824.00
2017-10-11T08:02:06.057Z,5067.00
2017-10-11T08:03:05.614Z,4930.00
2017-10-11T08:04:06.090Z,4767.00
2017-10-11T08:05:05.917Z,4955.00
2017-10-11T08:06:05.751Z,4844.00
2017-10-11T08:07:06.477Z,5410.00
2017-10-11T08:08:06.513Z,5198.00
2017-10-11T08:09:06.260Z,5137.00
2017-10-11T08:10:06.022Z,4389.00
2017-10-11T08:11:06.291Z,4382.00
2017-10-11T08:12:05.898Z,3354.00
2017-10-11T08:13:05.587Z,2800.00
2017-10-11T08:14:06.060Z,2471.00
2017-10-11T08:15:05.443Z,2802.00
2017-10-11T08:16:06.502Z,2865.00
2017-10-11T08:17:05.428Z,2548.00
2017-10-11T08:18:05.675Z,2678.00
2017-10-11T08:19:06.201Z,3499.00
2017-10-11T08:20:05.885Z,3908.00
2017-10-11T08:21:06.070Z,3906.00
2017-10-11T08:22:05.739Z,4072.00
2017-10-11T08:23:06.392Z,4518.00
2017-10-11T08:24:06.105Z,5439.00
2017-10-11T08:25:06.973Z,6091.00
2017-10-11T08:26:05.678Z,6925.00
2017-10-11T08:27:05.978Z,5571.00
2017-10-11T08:28:05.689Z,5102.00
2017-10-11T08:29:06.394Z,4719.00
2017-10-11T08:30:06.049Z,5658.00
2017-10-11T08:31:06.028Z,6750.00
2017-10-11T08:32:05.596Z,6501.00
2017-10-11T08:33:06.199Z,8044.00
2017-10-11T08:34:06.111Z,9631.00
2017-10-11T08:35:05.499Z,8523.00
2017-10-11T08:36:05.826Z,6601.00
2017-10-11T08:37:05.552Z,5589.00
2017-10-11T08:38:06.227Z,5027.00
2017-10-11T08:39:06.119Z,5623.00
2017-10-11T08:40:05.749Z,6078.00
2017-10-11T08:41:05.773Z,6164.00
2017-10-11T08:42:06.594Z,6211.00
2017-10-11T08:43:06.093Z,6492.00
2017-10-11T08:44:05.835Z,7047.00
2017-10-11T08:45:05.564Z,7027.00
2017-10-11T08:46:06.767Z,6552.00
2017-10-11T08:47:06.221Z,6599.00
2017-10-11T08:48:06.149Z,6459.00
2017-10-11T08:49:05.839Z,5719.00
2017-10-11T08:50:06.272Z,5454.00
2017-10-11T08:51:05.943Z,5129.00
2017-10-11T08:52:06.036Z,5255.00
2017-10-11T08:53:06.312Z,5438.00
2017-10-11T08:54:06.054Z,5470.00
2017-10-11T08:55:05.521Z,5552.00
2017-10-11T08:56:05.987Z,5360.00
2017-10-11T08:57:06.063Z,5200.00
2017-10-11T08:58:05.772Z,4776.00
2017-10-11T08:59:05.485Z,4539.00
2017-10-11T09:00:06.103Z,4928.00
2017-10-11T09:01:05.540Z,5068.00
2017-10-11T09:02:06.892Z,5107.00
2017-10-11T09:03:05.196Z,4999.00
2017-10-11T09:04:05.694Z,5238.00
2017-10-11T09:05:06.199Z,5751.00
2017-10-11T09:06:06.204Z,6491.00
2017-10-11T09:07:05.799Z,6568.00
2017-10-11T09:08:06.410Z,6193.00
2017-10-11T09:09:06.139Z,6799.00
2017-10-11T09:10:05.992Z,7074.00
2017-10-11T09:11:05.689Z,8224.00
2017-10-11T09:12:06.502Z,7765.00
2017-10-11T09:13:06.231Z,7468.00
2017-10-11T09:14:06.424Z,6014.00
2017-10-11T09:15:05.597Z,6141.00
2017-10-11T09:16:06.371Z,6567.00
2017-10-11T09:17:05.537Z,6719.00
2017-10-11T09:18:06.270Z,7314.00
2017-10-11T09:19:06.057Z,7081.00
2017-10-11T09:20:05.961Z,6490.00
2017-10-11T09:21:06.769Z,6202.00
2017-10-11T09:22:06.626Z,7084.00
2017-10-11T09:23:06.459Z,8486.00
2017-10-11T09:24:06.729Z,8762.00
2017-10-11T09:25:06.176Z,10842.00
2017-10-11T09:26:05.782Z,12037.00
2017-10-11T09:27:06.315Z,12682.00
2017-10-11T09:28:06.816Z,12027.00
2017-10-11T09:29:06.338Z,10613.00
2017-10-11T09:30:06.388Z,12062.00
2017-10-11T09:31:06.309Z,16660.00
2017-10-11T09:32:06.092Z,17360.00
2017-10-11T09:33:06.427Z,17800.00
2017-10-11T09:34:05.953Z,17112.00
2017-10-11T09:35:06.350Z,17816.00
2017-10-11T09:36:06.140Z,18744.00
2017-10-11T09:37:07.328Z,17728.00
2017-10-11T09:38:06.048Z,13076.00
2017-10-11T09:39:05.835Z,8683.00
2017-10-11T09:40:05.486Z,8966.00
2017-10-11T09:41:06.153Z,10315.00
2017-10-11T09:42:05.904Z,10170.00
2017-10-11T09:43:05.578Z,12238.00
2017-10-11T09:44:06.277Z,13860.00
2017-10-11T09:45:05.615Z,15045.00
2017-10-11T09:46:06.544Z,18304.00
2017-10-11T09:47:06.238Z,19528.00
2017-10-11T09:48:06.034Z,18824.00
2017-10-11T09:49:05.892Z,16754.00
2017-10-11T09:50:05.398Z,21440.00
2017-10-11T09:51:05.914Z,19768.00
2017-10-11T09:52:05.858Z,18400.00
2017-10-11T09:53:05.675Z,18704.00
2017-10-11T09:54:06.364Z,18432.00
2017-10-11T09:55:06.336Z,16644.00
2017-10-11T09:56:06.059Z,16171.00
2017-10-11T09:57:06.423Z,17472.00
2017-10-11T09:58:05.932Z,14760.00
2017-10-11T09:59:05.825Z,13652.00
2017-10-11T10:00:06.330Z,13310.00
2017-10-11T10:01:05.824Z,13137.00
2017-10-11T10:02:05.350Z,13653.00
2017-10-11T10:03:05.740Z,14298.00
2017-10-11T10:04:05.656Z,13254.00
2017-10-11T10:05:06.417Z,11767.00
2017-10-11T10:06:05.868Z,10192.00
2017-10-11T10:07:05.516Z,11975.00
2017-10-11T10:08:06.323Z,13341.00
2017-10-11T10:09:05.832Z,13899.00
2017-10-11T10:10:05.624Z,13955.00
2017-10-11T10:11:05.135Z,12729.00
2017-10-11T10:12:06.598Z,11852.00
2017-10-11T10:13:06.132Z,10908.00
2017-10-11T10:14:05.666Z,11124.00
2017-10-11T10:15:05.407Z,10582.00
2017-10-11T10:16:08.892Z,9951.00
2017-10-11T10:17:06.532Z,10082.00
2017-10-11T10:18:06.164Z,9660.00
2017-10-11T10:19:05.471Z,9390.00
2017-10-11T10:20:06.078Z,9540.00
2017-10-11T10:21:05.546Z,8627.00
2017-10-11T10:22:06.344Z,7552.00
2017-10-11T10:23:06.368Z,8597.00
2017-10-11T10:24:06.140Z,9656.00
2017-10-11T10:25:06.205Z,9917.00
2017-10-11T10:26:05.652Z,10698.00
2017-10-11T10:27:05.179Z,11796.00
2017-10-11T10:28:06.396Z,11914.00
2017-10-11T10:29:05.882Z,11346.00
2017-10-11T10:30:05.851Z,12488.00
2017-10-11T10:31:05.637Z,13425.00
2017-10-11T10:32:06.031Z,14002.00
2017-10-11T10:33:05.885Z,15199.00
2017-10-11T10:34:05.709Z,14282.00
2017-10-11T10:35:06.500Z,14227.00
2017-10-11T10:36:06.085Z,14473.00
2017-10-11T10:37:05.865Z,14176.00
2017-10-11T10:38:05.684Z,15092.00
2017-10-11T10:39:06.548Z,12971.00
2017-10-11T10:40:05.634Z,9401.00
2017-10-11T10:41:05.439Z,8096.00
2017-10-11T10:42:05.995Z,8062.00
2017-10-11T10:43:07.418Z,9637.00
2017-10-11T10:44:06.818Z,8708.00
2017-10-11T10:45:05.442Z,8487.00
2017-10-11T10:46:05.827Z,8586.00
2017-10-11T10:47:06.180Z,7300.00
2017-10-11T10:48:06.327Z,7704.00
2017-10-11T10:49:05.970Z,8218.00
2017-10-11T10:50:05.910Z,6024.00
2017-10-11T10:51:06.410Z,5597.00
2017-10-11T10:52:06.248Z,6433.00
2017-10-11T10:53:05.877Z,5698.00
2017-10-11T10:54:05.511Z,5831.00
2017-10-11T10:55:05.921Z,5024.00
2017-10-11T10:56:05.985Z,4444.00
2017-10-11T10:57:05.913Z,5792.00
2017-10-11T10:58:05.106Z,7528.00
2017-10-11T10:59:05.834Z,8097.00
2017-10-11T11:00:06.087Z,6676.00
2017-10-11T11:01:05.809Z,7532.00
2017-10-11T11:02:05.631Z,6498.00
2017-10-11T11:03:06.333Z,6155.00
2017-10-11T11:04:06.020Z,5920.00
2017-10-11T11:05:05.784Z,5608.00
2017-10-11T11:06:05.612Z,5845.00
2017-10-11T11:07:06.160Z,5338.00
2017-10-11T11:08:05.907Z,5255.00
2017-10-11T11:09:05.643Z,5774.00
2017-10-11T11:10:06.066Z,5683.00
2017-10-11T11:11:05.887Z,5467.00
2017-10-11T11:12:05.251Z,4653.00
2017-10-11T11:13:06.090Z,5593.00
2017-10-11T11:14:18.235Z,4586.00
2017-10-11T11:15:18.997Z,4798.00
2017-10-11T11:16:18.662Z,5985.00
2017-10-11T11:17:18.296Z,5910.00
2017-10-11T11:18:18.908Z,6010.00
2017-10-11T11:19:18.319Z,7138.00
2017-10-11T11:20:18.647Z,7199.00
2017-10-11T11:21:18.023Z,7381.00
2017-10-11T11:22:18.760Z,7702.00
2017-10-11T11:23:18.846Z,6881.00
2017-10-11T11:24:18.687Z,7254.00
2017-10-11T11:25:18.506Z,7547.00
2017-10-11T11:26:18.308Z,8376.00
2017-10-11T11:27:18.831Z,8614.00
2017-10-11T11:28:18.380Z,10200.00
2017-10-11T11:29:18.790Z,11786.00
2017-10-11T11:30:18.718Z,11731.00
2017-10-11T11:31:18.306Z,9120.00
2017-10-11T11:32:18.428Z,7380.00
2017-10-11T11:33:19.181Z,9060.00
2017-10-11T11:34:18.932Z,9830.00
2017-10-11T11:35:18.629Z,12307.00
2017-10-11T11:36:18.777Z,14092.00
2017-10-11T11:37:18.525Z,11554.00
2017-10-11T11:38:18.106Z,13657.00
2017-10-11T11:39:18.878Z,13074.00
2017-10-11T11:40:18.571Z,13140.00
2017-10-11T11:41:18.361Z,14594.00
2017-10-11T11:42:19.096Z,17328.00
2017-10-11T11:43:18.974Z,17488.00
2017-10-11T11:44:18.946Z,14124.00
2017-10-11T11:45:18.675Z,14004.00
2017-10-11T11:46:18.450Z,13949.00
2017-10-11T11:47:19.111Z,14780.00
2017-10-11T11:48:18.802Z,12496.00
2017-10-11T11:49:18.559Z,10232.00
2017-10-11T11:50:18.406Z,9439.00
2017-10-11T11:51:18.798Z,11556.00
2017-10-11T11:52:18.779Z,15181.00
2017-10-11T11:53:18.713Z,18400.00
2017-10-11T11:54:18.773Z,17632.00
2017-10-11T11:54:49.216Z,18192.00
2017-10-11T11:55:49.722Z,17088.00
2017-10-11T11:56:49.010Z,17720.00
2017-10-11T11:57:49.708Z,18736.00
2017-10-11T11:58:49.123Z,18264.00
2017-10-11T11:59:50.087Z,19632.00
2017-10-11T12:00:49.579Z,21400.00
2017-10-11T12:01:49.372Z,23040.00
2017-10-11T12:02:48.803Z,24360.00
2017-10-11T12:03:49.706Z,22128.00
2017-10-11T12:04:49.169Z,19384.00
2017-10-11T12:05:49.788Z,19520.00
2017-10-11T12:06:50.207Z,17920.00
2017-10-11T12:07:50.116Z,20816.00
2017-10-11T12:08:49.610Z,21592.00
2017-10-11T12:09:49.442Z,24904.00
2017-10-11T12:10:48.930Z,28472.00
2017-10-11T12:11:49.432Z,29416.00
2017-10-11T12:12:49.045Z,33008.00
2017-10-11T12:13:49.591Z,33800.00
2017-10-11T12:14:48.994Z,31800.00
2017-10-11T12:15:49.961Z,29880.00
2017-10-11T12:16:49.364Z,28904.00
2017-10-11T12:17:49.137Z,27296.00
2017-10-11T12:18:50.035Z,25848.00
2017-10-11T12:19:49.497Z,23848.00
2017-10-11T12:20:50.282Z,20632.00
2017-10-11T12:21:49.509Z,19072.00
2017-10-11T12:22:49.351Z,18488.00
2017-10-11T12:23:49.964Z,16300.00
2017-10-11T12:24:49.361Z,15031.00
2017-10-11T12:25:48.817Z,14703.00
2017-10-11T12:26:49.812Z,13225.00
2017-10-11T12:27:49.541Z,11907.00
2017-10-11T12:28:49.066Z,13902.00
2017-10-11T12:29:49.876Z,15820.00
2017-10-11T12:30:49.591Z,17160.00
2017-10-11T12:31:49.343Z,17648.00
2017-10-11T12:32:49.536Z,18088.00